Time;durP1;ratioP1;P1;durP2;ratioP2;P2;SDS_P1;SDS_P2;PMS_P1;PMS_P2;Temp;Humidity;BMP_temperature;BMP_pressure;BME280_temperature;BME280_humidity;BME280_pressure;Samples;Min_cycle;Max_cycle;Signal;HPM_P1;HPM_P2
2022/07/05 00:09:04;;;;;;;2.63;0.80;;;15.50;99.90;;;;;;20887766;28;20048;-85
2022/07/05 00:19:05;;;;;;;1.27;0.60;;;15.50;99.90;;;;;;20873060;28;20135;-84
2022/07/05 00:29:06;;;;;;;3.92;1.20;;;15.50;99.90;;;;;;20895482;28;20045;-84
2022/07/05 00:39:08;;;;;;;2.35;1.10;;;15.30;99.90;;;;;;20875867;28;20063;-84
2022/07/05 00:49:09;;;;;;;2.90;1.40;;;15.20;99.90;;;;;;20879723;28;20049;-84
2022/07/05 00:59:10;;;;;;;1.48;0.77;;;15.20;99.90;;;;;;20869083;28;20257;-85
2022/07/05 01:09:15;;;;;;;2.72;1.23;;;15.30;99.90;;;;;;20878174;28;20059;-84
2022/07/05 01:19:17;;;;;;;1.92;0.77;;;15.40;99.90;;;;;;20862001;28;20044;-83
2022/07/05 01:29:18;;;;;;;3.55;0.95;;;15.40;99.90;;;;;;20874542;28;20158;-84
2022/07/05 01:39:20;;;;;;;3.05;0.82;;;15.40;99.90;;;;;;20877969;28;20500;-84
2022/07/05 01:49:23;;;;;;;2.50;1.25;;;15.30;99.90;;;;;;20871756;28;20052;-85
2022/07/05 01:59:25;;;;;;;1.20;0.77;;;15.20;99.90;;;;;;20864084;28;20388;-85
2022/07/05 02:09:26;;;;;;;1.88;1.02;;;15.20;99.90;;;;;;20892244;28;20048;-84
2022/07/05 02:19:27;;;;;;;2.75;1.35;;;15.20;99.90;;;;;;20872835;28;20128;-84
2022/07/05 02:29:29;;;;;;;2.80;1.30;;;15.20;99.90;;;;;;20873393;28;20047;-85
2022/07/05 02:39:30;;;;;;;2.33;1.10;;;15.00;99.90;;;;;;20858528;28;20048;-85
2022/07/05 02:49:31;;;;;;;2.25;0.85;;;14.90;99.90;;;;;;20861989;28;20083;-85
2022/07/05 02:59:35;;;;;;;2.30;1.40;;;14.80;99.90;;;;;;20858016;28;20394;-85
2022/07/05 03:09:36;;;;;;;2.35;1.20;;;14.70;99.90;;;;;;20861566;28;20318;-84
2022/07/05 03:19:37;;;;;;;2.60;1.60;;;14.70;99.90;;;;;;20856843;28;20040;-84
2022/07/05 03:29:38;;;;;;;4.55;1.63;;;14.80;99.90;;;;;;20860314;28;20037;-84
2022/07/05 03:39:39;;;;;;;5.30;1.65;;;14.80;99.90;;;;;;20873497;28;22702;-84
2022/07/05 03:49:40;;;;;;;4.55;2.00;;;14.90;99.90;;;;;;20888052;28;20056;-85
2022/07/05 03:59:41;;;;;;;3.42;1.70;;;15.00;99.90;;;;;;20890460;28;20459;-85
2022/07/05 04:09:42;;;;;;;3.83;1.33;;;15.00;99.90;;;;;;20885167;28;20052;-84
2022/07/05 04:19:43;;;;;;;3.05;2.00;;;15.00;99.90;;;;;;20868287;28;20032;-85
2022/07/05 04:29:45;;;;;;;5.90;1.85;;;15.10;99.90;;;;;;20868571;28;20059;-84
2022/07/05 04:39:46;;;;;;;4.00;1.70;;;15.20;99.90;;;;;;20870317;28;20037;-84
2022/07/05 04:49:47;;;;;;;4.53;1.92;;;15.20;99.90;;;;;;20883146;28;21285;-84
2022/07/05 04:59:48;;;;;;;3.80;1.67;;;15.30;99.90;;;;;;20879163;28;20485;-84
2022/07/05 05:09:49;;;;;;;5.32;2.00;;;15.50;99.90;;;;;;20869363;28;20041;-84
2022/07/05 05:19:50;;;;;;;5.65;2.22;;;15.80;99.90;;;;;;20870398;28;20207;-84
2022/07/05 05:29:51;;;;;;;4.63;2.00;;;16.10;99.90;;;;;;20884969;28;20040;-82
2022/07/05 05:39:52;;;;;;;4.55;2.40;;;16.40;99.90;;;;;;20884318;28;20403;-85
2022/07/05 05:49:53;;;;;;;2.45;1.35;;;16.90;99.90;;;;;;20876947;28;20063;-81
2022/07/05 05:59:54;;;;;;;3.53;1.80;;;17.20;99.90;;;;;;20871711;28;20064;-80
2022/07/05 06:09:55;;;;;;;3.25;1.58;;;17.50;99.90;;;;;;20887984;28;20048;-80
2022/07/05 06:19:56;;;;;;;2.45;0.88;;;17.90;99.90;;;;;;20869336;28;20412;-80
2022/07/05 06:29:58;;;;;;;2.85;0.75;;;17.80;99.90;;;;;;20883079;28;20044;-80
2022/07/05 06:39:59;;;;;;;1.33;0.60;;;17.80;99.90;;;;;;20889561;28;20456;-80
2022/07/05 06:50:02;;;;;;;1.23;0.70;;;17.90;99.90;;;;;;20890196;28;20514;-80
2022/07/05 07:00:04;;;;;;;1.42;0.70;;;17.90;99.90;;;;;;20882944;28;20040;-80
2022/07/05 07:10:06;;;;;;;2.92;0.50;;;17.90;99.90;;;;;;20886234;28;20506;-80
2022/07/05 07:20:08;;;;;;;0.30;0.17;;;18.00;99.90;;;;;;20885946;28;20123;-80
2022/07/05 07:30:14;;;;;;;0.85;0.40;;;18.10;99.90;;;;;;20892206;28;20053;-80
2022/07/05 07:40:15;;;;;;;1.00;0.30;;;18.30;99.90;;;;;;20903271;28;20049;-80
2022/07/05 07:50:16;;;;;;;3.30;0.55;;;18.40;99.90;;;;;;20904500;28;20132;-79
2022/07/05 08:00:17;;;;;;;0.63;0.13;;;18.70;99.90;;;;;;20872843;28;20032;-79
2022/07/05 08:10:18;;;;;;;1.20;0.28;;;18.70;99.90;;;;;;20871957;28;20037;-80
2022/07/05 08:30:43;;;;;;;0.50;0.30;;;19.10;99.90;;;;;;20867991;28;20526;-81
2022/07/05 08:40:49;;;;;;;1.77;0.10;;;19.10;99.90;;;;;;20906324;28;20524;-81
2022/07/05 08:50:52;;;;;;;0.50;0.22;;;19.30;99.90;;;;;;20937340;28;20043;-82
2022/07/05 09:00:53;;;;;;;0.60;0.30;;;19.70;99.90;;;;;;20937648;28;20442;-81
2022/07/05 09:10:56;;;;;;;0.90;0.40;;;19.50;99.90;;;;;;20926565;28;20411;-80
2022/07/05 09:21:12;;;;;;;0.20;0.10;;;19.90;99.90;;;;;;20916342;28;20071;-81
2022/07/05 09:31:27;;;;;;;0.82;0.50;;;20.40;99.90;;;;;;20899218;28;20067;-81
2022/07/05 09:41:28;;;;;;;1.20;0.20;;;20.30;99.90;;;;;;20906977;28;20051;-81
2022/07/05 09:51:47;;;;;;;0.93;0.40;;;20.40;99.90;;;;;;20919016;28;20041;-82
2022/07/05 10:01:48;;;;;;;0.43;0.13;;;20.50;99.90;;;;;;20954182;28;20100;-82
2022/07/05 10:11:50;;;;;;;1.02;0.70;;;20.70;99.90;;;;;;20934301;28;20096;-82
2022/07/05 10:21:51;;;;;;;0.93;0.30;;;21.20;99.90;;;;;;20916223;28;20040;-82
2022/07/05 10:31:53;;;;;;;0.70;0.20;;;21.70;99.90;;;;;;20922503;28;20153;-82
2022/07/05 10:41:55;;;;;;;0.82;0.20;;;21.60;99.90;;;;;;20927743;28;20037;-82
2022/07/05 10:51:56;;;;;;;0.75;0.22;;;21.50;99.90;;;;;;20908295;28;20035;-82
2022/07/05 11:02:12;;;;;;;0.70;0.20;;;21.30;99.90;;;;;;20909109;28;20029;-82
2022/07/05 11:12:13;;;;;;;0.30;0.17;;;21.80;99.90;;;;;;20904305;28;20334;-81
2022/07/05 11:22:17;;;;;;;0.20;0.10;;;22.00;99.90;;;;;;20914095;28;20618;-81
2022/07/05 11:32:20;;;;;;;0.20;0.10;;;22.20;99.90;;;;;;20879703;28;20408;-81
2022/07/05 11:42:22;;;;;;;0.52;0.20;;;22.20;99.90;;;;;;20906638;28;20441;-81
2022/07/05 11:52:25;;;;;;;0.80;0.40;;;22.20;99.90;;;;;;20885811;28;20060;-81
2022/07/05 12:02:26;;;;;;;0.25;0.10;;;22.10;99.90;;;;;;20900686;28;20048;-81
2022/07/05 12:12:44;;;;;;;0.77;0.20;;;22.40;99.90;;;;;;20898292;28;20055;-81
2022/07/05 12:22:46;;;;;;;0.43;0.10;;;22.70;99.90;;;;;;20913251;28;20053;-81
2022/07/05 12:32:57;;;;;;;0.95;0.35;;;22.60;99.90;;;;;;20877246;28;20040;-81
2022/07/05 12:43:02;;;;;;;2.25;0.75;;;22.40;99.90;;;;;;20908268;28;20048;-80
2022/07/05 13:03:29;;;;;;;5.15;2.20;;;22.30;99.40;;;;;;20904033;28;20055;-81
2022/07/05 13:13:30;;;;;;;0.22;0.10;;;21.80;99.90;;;;;;20931283;28;20139;-81
2022/07/05 13:23:31;;;;;;;0.80;0.40;;;21.80;99.90;;;;;;20895993;28;20059;-81
2022/07/05 13:33:32;;;;;;;0.10;0.10;;;22.00;99.90;;;;;;20909805;28;20105;-81
2022/07/05 13:43:33;;;;;;;0.17;0.10;;;21.70;99.90;;;;;;20905734;28;20045;-81
2022/07/05 13:53:36;;;;;;;0.28;0.28;;;21.90;99.90;;;;;;20878746;28;20056;-80
2022/07/05 14:03:37;;;;;;;0.98;0.25;;;21.90;99.90;;;;;;20918236;28;20021;-81
2022/07/05 14:13:39;;;;;;;1.00;0.28;;;21.70;99.90;;;;;;20910558;28;20048;-81
2022/07/05 14:23:44;;;;;;;1.13;0.10;;;21.40;99.90;;;;;;20886183;28;20063;-81
2022/07/05 14:33:45;;;;;;;2.47;1.25;;;21.10;99.90;;;;;;20857553;28;20751;-82
2022/07/05 14:43:46;;;;;;;0.40;0.30;;;21.10;99.90;;;;;;20871835;28;20048;-81
2022/07/05 14:53:48;;;;;;;0.82;0.30;;;21.30;99.90;;;;;;20877315;28;20431;-81
2022/07/05 15:03:49;;;;;;;1.13;0.30;;;21.30;99.90;;;;;;20888099;28;20123;-81
2022/07/05 15:13:51;;;;;;;0.47;0.10;;;21.20;99.90;;;;;;20873745;28;20051;-81
2022/07/05 15:23:53;;;;;;;0.70;0.40;;;20.60;99.90;;;;;;20890060;28;20523;-81
2022/07/05 15:33:56;;;;;;;0.70;0.13;;;20.70;99.90;;;;;;20899955;28;20047;-83
2022/07/05 15:43:57;;;;;;;4.03;0.17;;;20.40;99.90;;;;;;20903847;28;20497;-82
2022/07/05 15:53:58;;;;;;;0.30;0.10;;;20.40;99.90;;;;;;20908102;28;20043;-82
2022/07/05 16:04:00;;;;;;;1.35;0.35;;;20.30;99.90;;;;;;20917702;28;20045;-82
2022/07/05 16:14:01;;;;;;;0.90;0.30;;;20.30;99.90;;;;;;20925275;28;20590;-83
2022/07/05 16:24:03;;;;;;;0.32;0.20;;;20.20;99.90;;;;;;20908364;28;20395;-83
2022/07/05 16:34:04;;;;;;;0.60;0.20;;;20.10;99.90;;;;;;20892426;28;20046;-82
2022/07/05 16:44:06;;;;;;;0.57;0.20;;;20.00;99.90;;;;;;20901533;28;20056;-85
2022/07/05 16:54:07;;;;;;;1.80;0.30;;;19.80;99.90;;;;;;20885266;28;20033;-82
2022/07/05 17:04:08;;;;;;;0.47;0.10;;;19.50;99.90;;;;;;20881962;28;20051;-82
2022/07/05 17:14:10;;;;;;;0.28;0.20;;;19.30;99.90;;;;;;20883986;28;20072;-82
2022/07/05 17:24:12;;;;;;;0.40;0.20;;;19.00;99.90;;;;;;20881890;28;20189;-82
2022/07/05 17:34:14;;;;;;;0.38;0.20;;;18.80;99.90;;;;;;20899252;28;20072;-82
2022/07/05 17:44:15;;;;;;;1.60;0.52;;;18.60;99.90;;;;;;20897134;28;20049;-82
2022/07/05 17:54:16;;;;;;;0.65;0.30;;;18.30;99.90;;;;;;20882119;28;20040;-82
2022/07/05 18:04:17;;;;;;;0.70;0.25;;;18.10;99.90;;;;;;20883445;28;20041;-82
2022/07/05 18:14:18;;;;;;;0.30;0.10;;;18.10;99.90;;;;;;20878721;28;20040;-82
2022/07/05 18:24:19;;;;;;;0.90;0.30;;;17.80;99.90;;;;;;20880795;28;20068;-82
2022/07/05 18:34:21;;;;;;;0.77;0.20;;;17.60;99.90;;;;;;20888061;28;20051;-82
2022/07/05 18:44:22;;;;;;;0.60;0.20;;;17.40;99.90;;;;;;20891373;28;20420;-82
2022/07/05 18:54:23;;;;;;;0.30;0.10;;;17.30;99.90;;;;;;20888473;28;20423;-82
2022/07/05 19:04:24;;;;;;;1.23;0.90;;;17.20;99.90;;;;;;20875123;28;20040;-81
2022/07/05 19:14:25;;;;;;;0.17;0.00;;;17.00;99.90;;;;;;20893955;28;20063;-82
2022/07/05 19:24:26;;;;;;;0.20;0.10;;;16.70;99.90;;;;;;20883839;28;20052;-82
2022/07/05 19:34:27;;;;;;;2.65;0.30;;;16.60;99.90;;;;;;20890552;28;20507;-82
2022/07/05 19:44:29;;;;;;;1.15;0.57;;;16.40;99.90;;;;;;20888652;28;20049;-82
2022/07/05 19:54:30;;;;;;;0.40;0.10;;;16.20;99.90;;;;;;20884880;28;20051;-82
2022/07/05 20:04:31;;;;;;;1.77;0.20;;;16.20;99.90;;;;;;20886238;28;20511;-82
2022/07/05 20:14:34;;;;;;;0.45;0.10;;;16.10;99.90;;;;;;20877277;28;20049;-82
2022/07/05 20:24:35;;;;;;;0.38;0.15;;;16.00;99.90;;;;;;20896170;28;20119;-82
2022/07/05 20:34:39;;;;;;;0.47;0.10;;;16.10;99.90;;;;;;20903453;28;20729;-82
2022/07/05 20:44:40;;;;;;;1.05;0.20;;;16.10;99.90;;;;;;20906231;28;20048;-81
2022/07/05 20:54:41;;;;;;;0.52;0.20;;;15.90;99.90;;;;;;20894722;28;20325;-82
2022/07/05 21:04:42;;;;;;;0.30;0.17;;;15.70;99.90;;;;;;20888824;28;20400;-82
2022/07/05 21:14:44;;;;;;;0.60;0.20;;;15.60;99.90;;;;;;20889518;28;20032;-82
2022/07/05 21:24:45;;;;;;;0.75;0.20;;;15.40;99.90;;;;;;20881713;28;20040;-83
2022/07/05 21:34:46;;;;;;;0.60;0.20;;;15.50;99.90;;;;;;20867735;28;20278;-83
2022/07/05 21:44:47;;;;;;;0.47;0.10;;;15.20;99.90;;;;;;20883504;28;20082;-84
2022/07/05 21:54:48;;;;;;;0.73;0.20;;;15.00;99.90;;;;;;20886516;28;20048;-85
2022/07/05 22:04:50;;;;;;;0.70;0.30;;;14.80;99.90;;;;;;20873682;28;20126;-84
2022/07/05 22:14:51;;;;;;;1.17;0.30;;;14.70;99.90;;;;;;20866773;28;20037;-85
2022/07/05 22:24:53;;;;;;;1.40;0.47;;;14.70;99.90;;;;;;20866136;28;20094;-85
2022/07/05 22:34:56;;;;;;;0.30;0.10;;;14.50;99.90;;;;;;20863715;28;20226;-84
2022/07/05 22:44:57;;;;;;;0.47;0.17;;;14.40;99.90;;;;;;20856657;28;20059;-85
2022/07/05 22:54:58;;;;;;;1.40;0.60;;;14.20;99.90;;;;;;20861076;28;20487;-85
2022/07/05 23:04:59;;;;;;;2.78;0.30;;;14.10;99.90;;;;;;20873711;28;20369;-85
2022/07/05 23:15:00;;;;;;;0.57;0.17;;;14.20;99.90;;;;;;20876082;28;20166;-85
2022/07/05 23:25:01;;;;;;;0.35;0.28;;;14.30;99.90;;;;;;20874342;28;20048;-85
2022/07/05 23:35:03;;;;;;;0.85;0.30;;;14.20;99.90;;;;;;20837623;28;20045;-85
2022/07/05 23:45:04;;;;;;;1.25;0.50;;;14.00;99.90;;;;;;20787806;28;20087;-85
2022/07/05 23:55:06;;;;;;;0.35;0.17;;;13.90;99.90;;;;;;20788259;28;20037;-86
